Time;durP1;ratioP1;P1;durP2;ratioP2;P2;SDS_P1;SDS_P2;PMS_P1;PMS_P2;Temp;Humidity;BMP_temperature;BMP_pressure;BME280_temperature;BME280_humidity;BME280_pressure;Samples;Min_cycle;Max_cycle;Signal;HPM_P1;HPM_P2
2023/09/12 00:02:15;;;;;;;10.52;6.85;;;;;;;;;;5017342;28;20270;-80
2023/09/12 00:04:43;;;;;;;12.75;6.88;;;;;;;;;;5017718;28;20321;-81
2023/09/12 00:07:10;;;;;;;13.35;7.40;;;;;;;;;;5034046;28;20254;-82
2023/09/12 00:09:37;;;;;;;15.23;7.65;;;;;;;;;;5034962;28;20222;-79
2023/09/12 00:12:05;;;;;;;9.57;7.60;;;;;;;;;;5035112;28;20572;-84
2023/09/12 00:14:32;;;;;;;11.23;7.78;;;;;;;;;;5034647;28;20227;-80
2023/09/12 00:16:59;;;;;;;9.98;7.03;;;;;;;;;;5034502;28;20202;-83
2023/09/12 00:19:26;;;;;;;10.43;6.97;;;;;;;;;;5017888;28;20226;-82
2023/09/12 00:21:53;;;;;;;9.05;7.05;;;;;;;;;;5014649;28;20230;-83
2023/09/12 00:24:21;;;;;;;13.32;6.68;;;;;;;;;;5024257;28;20231;-82
2023/09/12 00:26:48;;;;;;;9.18;6.78;;;;;;;;;;5048616;28;20253;-80
2023/09/12 00:29:15;;;;;;;13.57;7.13;;;;;;;;;;5035075;28;20561;-81
2023/09/12 00:31:42;;;;;;;10.95;7.55;;;;;;;;;;5038359;28;20269;-83
2023/09/12 00:34:10;;;;;;;11.68;6.75;;;;;;;;;;5033625;28;20262;-81
2023/09/12 00:36:39;;;;;;;10.02;6.93;;;;;;;;;;5030592;28;20232;-82
2023/09/12 00:39:06;;;;;;;9.05;6.47;;;;;;;;;;5034816;28;20295;-82
2023/09/12 00:41:34;;;;;;;9.30;7.00;;;;;;;;;;5013457;28;20211;-83
2023/09/12 00:44:01;;;;;;;10.48;6.38;;;;;;;;;;5030735;28;20277;-84
2023/09/12 00:46:29;;;;;;;8.88;6.95;;;;;;;;;;5042277;28;20228;-81
2023/09/12 00:48:58;;;;;;;10.80;6.80;;;;;;;;;;5030458;28;20227;-80
2023/09/12 00:51:26;;;;;;;7.95;6.68;;;;;;;;;;5034224;28;20209;-80
2023/09/12 00:53:55;;;;;;;10.85;6.97;;;;;;;;;;5026963;28;20223;-82
2023/09/12 00:56:22;;;;;;;9.55;7.10;;;;;;;;;;5033213;28;20207;-81
2023/09/12 00:58:51;;;;;;;11.57;8.23;;;;;;;;;;5013868;28;20223;-81
2023/09/12 01:01:19;;;;;;;13.98;8.35;;;;;;;;;;5029352;28;20206;-81
2023/09/12 01:03:46;;;;;;;11.63;7.80;;;;;;;;;;5033865;28;20272;-82
2023/09/12 01:06:15;;;;;;;10.90;7.05;;;;;;;;;;5033855;28;20227;-83
2023/09/12 01:08:42;;;;;;;16.23;7.60;;;;;;;;;;5016544;28;20652;-82
2023/09/12 01:11:10;;;;;;;10.25;7.10;;;;;;;;;;5030084;28;20662;-81
2023/09/12 01:13:37;;;;;;;9.90;6.43;;;;;;;;;;5032987;28;20219;-79
2023/09/12 01:16:04;;;;;;;8.13;7.00;;;;;;;;;;5011386;28;20380;-80
2023/09/12 01:18:33;;;;;;;8.70;7.32;;;;;;;;;;5029221;28;20199;-79
2023/09/12 01:21:16;;;;;;;9.10;6.75;;;;;;;;;;5012678;28;20690;-82
2023/09/12 01:23:46;;;;;;;10.13;6.68;;;;;;;;;;5016258;28;20386;-83
2023/09/12 01:26:19;;;;;;;9.02;6.90;;;;;;;;;;5015555;28;20223;-82
2023/09/12 01:28:47;;;;;;;11.77;7.07;;;;;;;;;;5029578;28;20199;-81
2023/09/12 01:31:16;;;;;;;8.85;6.28;;;;;;;;;;5013837;28;20233;-81
2023/09/12 01:33:43;;;;;;;13.25;6.85;;;;;;;;;;5031684;28;20219;-80
2023/09/12 01:36:10;;;;;;;9.48;6.97;;;;;;;;;;5026883;28;20207;-81
2023/09/12 01:38:38;;;;;;;6.93;6.22;;;;;;;;;;5044426;28;20203;-81
2023/09/12 01:41:05;;;;;;;12.27;7.40;;;;;;;;;;5031489;28;20661;-79
2023/09/12 01:43:33;;;;;;;12.80;7.18;;;;;;;;;;5031643;28;20230;-80
2023/09/12 01:46:01;;;;;;;9.20;7.05;;;;;;;;;;5031578;28;20199;-79
2023/09/12 01:48:33;;;;;;;11.02;7.07;;;;;;;;;;5013782;28;20199;-79
2023/09/12 01:51:04;;;;;;;8.80;7.47;;;;;;;;;;5031452;28;20249;-81
2023/09/12 01:53:33;;;;;;;14.65;7.30;;;;;;;;;;5028149;28;20225;-81
2023/09/12 01:56:00;;;;;;;9.68;6.88;;;;;;;;;;5014532;28;20203;-79
2023/09/12 01:58:27;;;;;;;7.70;6.90;;;;;;;;;;5030963;28;20203;-81
2023/09/12 02:00:55;;;;;;;10.05;6.75;;;;;;;;;;5014299;28;20202;-80
2023/09/12 02:03:22;;;;;;;8.57;6.78;;;;;;;;;;5031179;28;20230;-79
2023/09/12 02:05:49;;;;;;;11.85;7.03;;;;;;;;;;5028070;28;20199;-79
2023/09/12 02:08:16;;;;;;;8.48;7.60;;;;;;;;;;5013009;28;20223;-81
2023/09/12 02:10:44;;;;;;;12.63;7.40;;;;;;;;;;5028029;28;20265;-79
2023/09/12 02:13:11;;;;;;;9.57;7.40;;;;;;;;;;5031677;28;20222;-80
2023/09/12 02:15:38;;;;;;;11.15;6.93;;;;;;;;;;5024717;28;20207;-81
2023/09/12 02:18:05;;;;;;;11.75;7.50;;;;;;;;;;5027625;28;20203;-80
2023/09/12 02:20:33;;;;;;;10.90;7.57;;;;;;;;;;5030706;28;20203;-80
2023/09/12 02:23:00;;;;;;;10.15;7.53;;;;;;;;;;5028381;28;20206;-80
2023/09/12 02:25:27;;;;;;;10.60;7.22;;;;;;;;;;5033411;28;20215;-80
2023/09/12 02:27:55;;;;;;;9.25;7.22;;;;;;;;;;5031530;28;20250;-80
2023/09/12 02:30:22;;;;;;;10.75;7.40;;;;;;;;;;5032264;28;20673;-80
2023/09/12 02:32:49;;;;;;;10.20;7.10;;;;;;;;;;5034791;28;20198;-81
2023/09/12 02:35:16;;;;;;;10.02;6.88;;;;;;;;;;5034594;28;20207;-79
2023/09/12 02:37:43;;;;;;;8.93;6.60;;;;;;;;;;5029139;28;20204;-81
2023/09/12 02:40:11;;;;;;;9.45;7.45;;;;;;;;;;5013761;28;20334;-81
2023/09/12 02:42:39;;;;;;;11.75;7.65;;;;;;;;;;5031278;28;20208;-81
2023/09/12 02:45:06;;;;;;;9.00;7.30;;;;;;;;;;5017617;28;20222;-79
2023/09/12 02:47:33;;;;;;;8.93;7.35;;;;;;;;;;5017136;28;20226;-81
2023/09/12 02:50:01;;;;;;;11.05;7.15;;;;;;;;;;5031809;28;20202;-80
2023/09/12 02:52:28;;;;;;;9.43;7.40;;;;;;;;;;5032086;28;20270;-80
2023/09/12 02:54:55;;;;;;;12.90;7.68;;;;;;;;;;5029564;28;20284;-80
2023/09/12 02:57:23;;;;;;;12.40;8.15;;;;;;;;;;5033995;28;20203;-77
2023/09/12 02:59:50;;;;;;;9.75;7.43;;;;;;;;;;5016988;28;20211;-80
2023/09/12 03:02:17;;;;;;;11.52;7.55;;;;;;;;;;5033956;28;20211;-80
2023/09/12 03:04:44;;;;;;;11.65;8.00;;;;;;;;;;5073288;23;20229;-82
2023/09/12 03:07:12;;;;;;;12.75;7.88;;;;;;;;;;5047143;28;20233;-83
2023/09/12 03:09:39;;;;;;;9.65;7.45;;;;;;;;;;5041461;28;20246;-82
2023/09/12 03:12:06;;;;;;;7.88;7.07;;;;;;;;;;5045220;28;20248;-83
2023/09/12 03:14:34;;;;;;;10.25;7.68;;;;;;;;;;5063027;28;20222;-81
2023/09/12 03:17:03;;;;;;;12.38;7.68;;;;;;;;;;5059980;28;20206;-82
2023/09/12 03:19:31;;;;;;;11.38;8.07;;;;;;;;;;5061522;28;20672;-82
2023/09/12 03:21:58;;;;;;;11.30;7.72;;;;;;;;;;5063793;28;20202;-82
2023/09/12 03:24:25;;;;;;;8.65;7.30;;;;;;;;;;5061396;28;20752;-81
2023/09/12 03:26:52;;;;;;;12.50;7.93;;;;;;;;;;5060069;28;20222;-84
2023/09/12 03:29:20;;;;;;;9.60;6.85;;;;;;;;;;5064758;28;20206;-83
2023/09/12 03:31:47;;;;;;;8.57;6.78;;;;;;;;;;5067335;28;20202;-83
2023/09/12 03:34:14;;;;;;;12.63;7.40;;;;;;;;;;5063169;28;20229;-82
2023/09/12 03:36:41;;;;;;;13.65;7.35;;;;;;;;;;5062546;28;20198;-81
2023/09/12 03:39:08;;;;;;;11.65;7.35;;;;;;;;;;5059197;28;20194;-83
2023/09/12 03:41:36;;;;;;;8.82;7.13;;;;;;;;;;5061029;28;20194;-82
2023/09/12 03:44:03;;;;;;;9.07;7.20;;;;;;;;;;5062348;28;20233;-84
2023/09/12 03:46:30;;;;;;;10.45;7.05;;;;;;;;;;5064124;28;20206;-83
2023/09/12 03:48:57;;;;;;;12.02;8.07;;;;;;;;;;5060958;28;20210;-82
2023/09/12 03:51:25;;;;;;;12.88;8.48;;;;;;;;;;5073628;28;20210;-81
2023/09/12 03:53:52;;;;;;;21.52;15.63;;;;;;;;;;5066805;28;20617;-81
2023/09/12 03:56:19;;;;;;;31.75;21.88;;;;;;;;;;5059993;28;20214;-83
2023/09/12 03:58:47;;;;;;;18.95;12.55;;;;;;;;;;5058650;28;20222;-82
2023/09/12 04:01:14;;;;;;;17.40;12.82;;;;;;;;;;5056689;28;20587;-80
2023/09/12 04:03:42;;;;;;;14.52;10.57;;;;;;;;;;5059197;28;20233;-81
2023/09/12 04:06:09;;;;;;;14.55;8.10;;;;;;;;;;5041386;28;20816;-82
2023/09/12 04:08:37;;;;;;;13.85;8.70;;;;;;;;;;5056321;28;20223;-83
2023/09/12 04:11:04;;;;;;;10.18;8.57;;;;;;;;;;5041297;28;20209;-81
2023/09/12 04:13:31;;;;;;;10.68;7.75;;;;;;;;;;5037691;28;20672;-81
2023/09/12 04:15:58;;;;;;;10.52;7.50;;;;;;;;;;5058920;28;20209;-83
2023/09/12 04:18:26;;;;;;;9.80;7.47;;;;;;;;;;5056386;28;20202;-82
2023/09/12 04:20:57;;;;;;;11.43;8.00;;;;;;;;;;5056105;28;20260;-80
2023/09/12 04:23:25;;;;;;;14.48;8.35;;;;;;;;;;5055293;28;20242;-81
2023/09/12 04:25:52;;;;;;;12.52;7.95;;;;;;;;;;5052325;28;20656;-79
2023/09/12 04:28:19;;;;;;;13.55;8.02;;;;;;;;;;5051439;28;20299;-82
2023/09/12 04:30:47;;;;;;;16.17;7.85;;;;;;;;;;5049658;28;20372;-82
2023/09/12 04:33:14;;;;;;;10.38;8.40;;;;;;;;;;5050192;28;20867;-81
2023/09/12 04:35:41;;;;;;;10.75;8.25;;;;;;;;;;5052456;28;20199;-83
2023/09/12 04:38:09;;;;;;;11.07;7.72;;;;;;;;;;5049992;28;20206;-82
2023/09/12 04:40:36;;;;;;;9.13;7.53;;;;;;;;;;5056826;28;20638;-83
2023/09/12 04:43:03;;;;;;;10.02;8.00;;;;;;;;;;5058814;28;20255;-82
2023/09/12 04:45:33;;;;;;;9.80;7.40;;;;;;;;;;5038218;28;20766;-81
2023/09/12 04:48:00;;;;;;;14.93;9.05;;;;;;;;;;5059132;28;20655;-82
2023/09/12 04:50:27;;;;;;;18.67;11.27;;;;;;;;;;5053870;28;20300;-82
2023/09/12 04:52:54;;;;;;;13.55;9.30;;;;;;;;;;5055172;28;20206;-82
2023/09/12 04:55:22;;;;;;;8.98;7.97;;;;;;;;;;5060993;28;20768;-83
2023/09/12 04:57:49;;;;;;;11.98;8.52;;;;;;;;;;5054411;28;20594;-81
2023/09/12 05:00:16;;;;;;;12.30;8.38;;;;;;;;;;5056788;28;20209;-83
2023/09/12 05:02:43;;;;;;;13.70;8.95;;;;;;;;;;5038661;28;20206;-83
2023/09/12 05:05:11;;;;;;;13.18;8.23;;;;;;;;;;5057306;28;20232;-83
2023/09/12 05:07:38;;;;;;;11.75;8.48;;;;;;;;;;5059442;28;20298;-81
2023/09/12 05:10:06;;;;;;;13.30;8.15;;;;;;;;;;5057420;28;20264;-82
2023/09/12 05:12:33;;;;;;;11.48;8.65;;;;;;;;;;5052381;28;20239;-82
2023/09/12 05:15:00;;;;;;;13.05;7.90;;;;;;;;;;5057231;28;20457;-82
2023/09/12 05:17:27;;;;;;;13.02;8.15;;;;;;;;;;5055610;28;20210;-82
2023/09/12 05:19:55;;;;;;;11.70;8.05;;;;;;;;;;5056342;28;20272;-83
2023/09/12 05:22:22;;;;;;;9.95;8.40;;;;;;;;;;5054748;28;20722;-82
2023/09/12 05:24:49;;;;;;;12.20;8.23;;;;;;;;;;5054352;28;20226;-82
2023/09/12 05:27:16;;;;;;;10.38;8.55;;;;;;;;;;5054277;28;20222;-79
2023/09/12 05:29:44;;;;;;;10.35;8.18;;;;;;;;;;5054665;28;20234;-80
2023/09/12 05:32:11;;;;;;;12.55;8.43;;;;;;;;;;5057521;28;20220;-82
2023/09/12 05:34:38;;;;;;;11.52;8.27;;;;;;;;;;5055350;28;20229;-81
2023/09/12 05:37:06;;;;;;;11.90;8.63;;;;;;;;;;5055738;28;20198;-84
2023/09/12 05:39:33;;;;;;;14.43;8.48;;;;;;;;;;5053124;28;20217;-82
2023/09/12 05:42:01;;;;;;;13.15;9.27;;;;;;;;;;5057273;28;20198;-84
2023/09/12 05:44:28;;;;;;;17.27;8.57;;;;;;;;;;5054660;28;20230;-84
2023/09/12 05:46:55;;;;;;;16.63;9.60;;;;;;;;;;5051285;28;20252;-83
2023/09/12 05:49:22;;;;;;;11.02;8.48;;;;;;;;;;5057792;28;20225;-82
2023/09/12 05:51:50;;;;;;;12.80;8.40;;;;;;;;;;5058228;28;20198;-82
2023/09/12 05:54:19;;;;;;;9.23;8.15;;;;;;;;;;5040124;28;20332;-82
2023/09/12 05:56:48;;;;;;;8.73;7.82;;;;;;;;;;5055721;28;20202;-79
2023/09/12 05:59:15;;;;;;;11.35;8.05;;;;;;;;;;5056727;28;20232;-82
2023/09/12 06:01:42;;;;;;;15.35;8.75;;;;;;;;;;5059517;28;20259;-80
2023/09/12 06:04:09;;;;;;;10.48;8.50;;;;;;;;;;5061384;28;20230;-79
2023/09/12 06:06:38;;;;;;;11.45;8.75;;;;;;;;;;5062022;28;20217;-81
2023/09/12 06:09:06;;;;;;;11.88;9.77;;;;;;;;;;5061565;28;20229;-83
2023/09/12 06:11:33;;;;;;;13.13;10.68;;;;;;;;;;5062332;28;20202;-82
2023/09/12 06:14:01;;;;;;;12.00;9.48;;;;;;;;;;5044584;28;20226;-81
2023/09/12 06:16:28;;;;;;;10.75;9.07;;;;;;;;;;5061920;28;20202;-83
2023/09/12 06:18:55;;;;;;;11.13;8.80;;;;;;;;;;5044302;28;20208;-82
2023/09/12 06:21:22;;;;;;;13.52;9.15;;;;;;;;;;5062972;28;20210;-82
2023/09/12 06:24:08;;;;;;;11.20;9.18;;;;;;;;;;5063176;28;20261;-82
2023/09/12 06:26:35;;;;;;;12.40;8.57;;;;;;;;;;5062733;28;20210;-80
2023/09/12 06:29:02;;;;;;;11.35;8.43;;;;;;;;;;5066905;28;20218;-81
2023/09/12 06:31:30;;;;;;;10.05;9.05;;;;;;;;;;5073083;28;20198;-79
2023/09/12 06:33:57;;;;;;;11.50;9.27;;;;;;;;;;5067413;28;20237;-83
2023/09/12 06:36:29;;;;;;;8.30;7.35;;;;;;;;;;5062573;28;20210;-84
2023/09/12 06:38:57;;;;;;;8.80;7.55;;;;;;;;;;5055642;28;20209;-84
2023/09/12 06:41:24;;;;;;;8.18;7.00;;;;;;;;;;5062639;28;20210;-84
2023/09/12 06:43:52;;;;;;;9.30;7.47;;;;;;;;;;5065137;28;20248;-83
2023/09/12 06:46:19;;;;;;;7.72;6.60;;;;;;;;;;5046660;28;20440;-84
2023/09/12 06:48:46;;;;;;;8.25;7.22;;;;;;;;;;5062835;28;20218;-84
2023/09/12 06:51:15;;;;;;;7.65;6.75;;;;;;;;;;5045565;28;20202;-82
2023/09/12 06:53:44;;;;;;;8.40;7.05;;;;;;;;;;5043025;28;20226;-82
2023/09/12 06:56:11;;;;;;;8.60;7.70;;;;;;;;;;5042835;28;20198;-82
2023/09/12 06:58:38;;;;;;;9.45;6.93;;;;;;;;;;5060784;28;20267;-85
2023/09/12 07:01:06;;;;;;;8.00;7.20;;;;;;;;;;5042545;28;20206;-80
2023/09/12 07:03:34;;;;;;;10.43;7.50;;;;;;;;;;5040188;28;20221;-83
2023/09/12 07:06:03;;;;;;;9.45;7.70;;;;;;;;;;5038325;28;20206;-82
2023/09/12 07:08:30;;;;;;;10.15;7.30;;;;;;;;;;5039820;28;20250;-79
2023/09/12 07:10:59;;;;;;;9.20;7.95;;;;;;;;;;5043500;28;20202;-81
2023/09/12 07:13:26;;;;;;;7.72;7.03;;;;;;;;;;5052163;28;20236;-84
2023/09/12 07:15:53;;;;;;;8.75;7.95;;;;;;;;;;5061305;28;20217;-80
2023/09/12 07:18:21;;;;;;;9.98;7.97;;;;;;;;;;5059641;28;20210;-83
2023/09/12 07:20:57;;;;;;;9.77;8.75;;;;;;;;;;5055591;28;20294;-80
2023/09/12 07:23:24;;;;;;;8.88;8.05;;;;;;;;;;5063698;28;20201;-82
2023/09/12 07:25:52;;;;;;;8.38;7.63;;;;;;;;;;5063308;28;20582;-84
2023/09/12 07:28:19;;;;;;;8.93;8.02;;;;;;;;;;5059399;28;20253;-83
2023/09/12 07:30:47;;;;;;;8.68;7.88;;;;;;;;;;5060232;28;20202;-84
2023/09/12 07:33:15;;;;;;;8.85;7.95;;;;;;;;;;5043459;28;20206;-82
2023/09/12 07:35:42;;;;;;;9.50;8.50;;;;;;;;;;5062113;28;20234;-82
2023/09/12 07:38:11;;;;;;;8.50;7.38;;;;;;;;;;5042484;28;20202;-82
2023/09/12 07:40:38;;;;;;;9.77;8.38;;;;;;;;;;5041365;28;20267;-85
2023/09/12 07:43:07;;;;;;;11.07;8.45;;;;;;;;;;5049877;28;20210;-83
2023/09/12 07:45:36;;;;;;;8.80;8.00;;;;;;;;;;5059158;28;20790;-82
2023/09/12 07:48:06;;;;;;;10.15;8.25;;;;;;;;;;5060018;28;20226;-81
2023/09/12 07:50:34;;;;;;;10.15;7.97;;;;;;;;;;5060544;28;20198;-84
2023/09/12 07:53:01;;;;;;;9.13;8.20;;;;;;;;;;5043651;28;20202;-85
2023/09/12 07:55:30;;;;;;;8.85;7.95;;;;;;;;;;5041187;28;20238;-82
2023/09/12 07:57:58;;;;;;;9.35;8.32;;;;;;;;;;5055623;28;20213;-83
2023/09/12 08:00:25;;;;;;;9.20;8.07;;;;;;;;;;5058247;28;20213;-82
2023/09/12 08:02:52;;;;;;;10.65;8.68;;;;;;;;;;5057209;28;20198;-81
2023/09/12 08:05:19;;;;;;;9.68;8.77;;;;;;;;;;5037836;28;20238;-82
2023/09/12 08:07:46;;;;;;;9.27;8.30;;;;;;;;;;5056907;28;20661;-84
2023/09/12 08:10:14;;;;;;;9.85;8.88;;;;;;;;;;5058940;28;20210;-84
2023/09/12 08:12:41;;;;;;;10.00;9.00;;;;;;;;;;5054630;28;20487;-84
2023/09/12 08:15:09;;;;;;;9.55;8.65;;;;;;;;;;5055747;28;20318;-82
2023/09/12 08:17:36;;;;;;;9.20;7.82;;;;;;;;;;5039850;28;20203;-84
2023/09/12 08:20:03;;;;;;;8.45;7.53;;;;;;;;;;5059763;28;20237;-84
2023/09/12 08:22:31;;;;;;;10.55;8.35;;;;;;;;;;5058724;28;20213;-82
2023/09/12 08:24:58;;;;;;;10.00;8.15;;;;;;;;;;5053954;28;20692;-82
2023/09/12 08:27:25;;;;;;;8.80;7.90;;;;;;;;;;5060025;28;20216;-82
2023/09/12 08:29:52;;;;;;;9.35;8.25;;;;;;;;;;5058383;28;20218;-84
2023/09/12 08:32:20;;;;;;;9.73;8.73;;;;;;;;;;5057955;28;20209;-82
2023/09/12 08:34:47;;;;;;;8.48;7.60;;;;;;;;;;5059205;28;20229;-83
2023/09/12 08:37:14;;;;;;;9.32;8.43;;;;;;;;;;5057838;28;20210;-83
2023/09/12 08:39:43;;;;;;;10.48;8.27;;;;;;;;;;5057259;28;20228;-81
2023/09/12 08:42:13;;;;;;;8.98;8.18;;;;;;;;;;5061099;28;20202;-84
2023/09/12 08:44:41;;;;;;;9.73;8.75;;;;;;;;;;5058473;28;20289;-83
2023/09/12 08:47:10;;;;;;;9.57;7.95;;;;;;;;;;5057320;28;20638;-83
2023/09/12 08:49:37;;;;;;;9.00;8.23;;;;;;;;;;5057977;28;20233;-82
2023/09/12 08:52:05;;;;;;;8.60;7.82;;;;;;;;;;5058669;28;20203;-83
2023/09/12 08:54:33;;;;;;;9.02;8.23;;;;;;;;;;5058862;28;20268;-82
2023/09/12 08:57:05;;;;;;;8.15;7.35;;;;;;;;;;5059362;28;20264;-81
2023/09/12 08:59:33;;;;;;;7.82;7.22;;;;;;;;;;5039767;28;21082;-81
2023/09/12 09:02:01;;;;;;;7.93;7.15;;;;;;;;;;5058938;28;20235;-81
2023/09/12 09:04:30;;;;;;;9.95;6.88;;;;;;;;;;5057101;23;20238;-81
2023/09/12 09:07:02;;;;;;;9.10;7.20;;;;;;;;;;5033990;28;20306;-79
2023/09/12 09:09:30;;;;;;;7.68;6.90;;;;;;;;;;5056044;28;20230;-81
2023/09/12 09:11:57;;;;;;;7.50;6.80;;;;;;;;;;5026568;28;20282;-80
2023/09/12 09:14:24;;;;;;;7.95;7.25;;;;;;;;;;5047187;28;20781;-79
2023/09/12 09:16:51;;;;;;;7.40;6.80;;;;;;;;;;5037048;28;20199;-81
2023/09/12 09:19:19;;;;;;;8.73;6.88;;;;;;;;;;5041339;28;20243;-77
2023/09/12 09:21:47;;;;;;;7.55;6.85;;;;;;;;;;5027751;28;20241;-81
2023/09/12 09:24:15;;;;;;;7.68;6.88;;;;;;;;;;5027229;28;20577;-82
2023/09/12 09:26:43;;;;;;;8.20;7.40;;;;;;;;;;5023568;28;20202;-80
2023/09/12 09:29:11;;;;;;;7.43;6.72;;;;;;;;;;5031218;28;20226;-84
2023/09/12 09:31:42;;;;;;;7.50;6.80;;;;;;;;;;5047342;28;20260;-82
2023/09/12 09:34:16;;;;;;;7.15;6.50;;;;;;;;;;5024135;28;20242;-82
2023/09/12 09:36:44;;;;;;;7.38;6.68;;;;;;;;;;5040559;28;20285;-83
2023/09/12 09:39:13;;;;;;;9.13;6.47;;;;;;;;;;5033191;28;20298;-78
2023/09/12 09:41:41;;;;;;;7.43;6.72;;;;;;;;;;5032074;28;20218;-82
2023/09/12 09:44:08;;;;;;;7.05;6.03;;;;;;;;;;5039828;28;20637;-82
2023/09/12 09:46:36;;;;;;;8.02;6.63;;;;;;;;;;5038123;28;20208;-82
2023/09/12 09:49:06;;;;;;;7.45;6.78;;;;;;;;;;5034291;28;20222;-83
2023/09/12 09:51:33;;;;;;;8.07;7.25;;;;;;;;;;5047145;28;20214;-76
2023/09/12 09:54:00;;;;;;;8.60;7.00;;;;;;;;;;5020146;28;20227;-82
2023/09/12 09:56:28;;;;;;;7.93;7.20;;;;;;;;;;5027496;28;20229;-81
2023/09/12 09:58:55;;;;;;;7.32;6.60;;;;;;;;;;5020637;28;20199;-82
2023/09/12 10:01:30;;;;;;;6.85;6.25;;;;;;;;;;5029001;28;20262;-81
2023/09/12 10:03:59;;;;;;;7.13;6.50;;;;;;;;;;5030565;28;20240;-83
2023/09/12 10:06:27;;;;;;;6.85;6.15;;;;;;;;;;5041682;28;20210;-83
2023/09/12 10:08:55;;;;;;;6.97;6.38;;;;;;;;;;5032057;28;20255;-85
2023/09/12 10:11:23;;;;;;;7.07;6.40;;;;;;;;;;5036851;28;20210;-81
2023/09/12 10:13:53;;;;;;;7.50;6.00;;;;;;;;;;5023113;28;20214;-86
2023/09/12 10:16:24;;;;;;;6.78;6.18;;;;;;;;;;5020385;28;20200;-81
2023/09/12 10:19:00;;;;;;;6.72;6.03;;;;;;;;;;5021770;28;20218;-85
2023/09/12 10:21:31;;;;;;;6.82;6.22;;;;;;;;;;5021335;28;20686;-78
2023/09/12 10:24:00;;;;;;;7.60;5.63;;;;;;;;;;5036262;28;20258;-83
2023/09/12 10:26:27;;;;;;;8.73;5.60;;;;;;;;;;5029910;28;20211;-82
2023/09/12 10:28:55;;;;;;;6.45;5.22;;;;;;;;;;5021057;28;20235;-84
2023/09/12 10:31:23;;;;;;;6.50;5.40;;;;;;;;;;5026883;28;20205;-82
2023/09/12 10:33:52;;;;;;;7.00;6.30;;;;;;;;;;5037271;28;20275;-83
2023/09/12 10:36:19;;;;;;;6.72;5.68;;;;;;;;;;5036184;28;20206;-84
2023/09/12 10:38:48;;;;;;;6.50;5.90;;;;;;;;;;5021097;28;20222;-80
2023/09/12 10:41:16;;;;;;;5.72;5.25;;;;;;;;;;5024707;28;20207;-84
2023/09/12 10:43:49;;;;;;;6.15;5.65;;;;;;;;;;5038812;28;20211;-83
2023/09/12 10:46:17;;;;;;;6.90;6.30;;;;;;;;;;5029796;28;20211;-82
2023/09/12 10:48:45;;;;;;;7.38;5.40;;;;;;;;;;5033690;28;20219;-83
2023/09/12 10:51:13;;;;;;;6.35;5.75;;;;;;;;;;5036520;28;20238;-80
2023/09/12 10:53:46;;;;;;;5.90;5.45;;;;;;;;;;5058133;28;20226;-83
2023/09/12 10:56:13;;;;;;;6.00;5.40;;;;;;;;;;5056100;28;20213;-84
2023/09/12 10:59:06;;;;;;;6.20;5.60;;;;;;;;;;5035853;28;20203;-82
2023/09/12 11:01:40;;;;;;;5.68;4.85;;;;;;;;;;5030569;28;20202;-81
2023/09/12 11:04:24;;;;;;;9.93;5.25;;;;;;;;;;5036002;28;20321;-81
2023/09/12 11:06:51;;;;;;;6.13;5.60;;;;;;;;;;5034252;28;20214;-86
2023/09/12 11:09:23;;;;;;;6.63;5.65;;;;;;;;;;5025801;28;20232;-83
2023/09/12 11:11:55;;;;;;;6.43;5.93;;;;;;;;;;5050459;28;20237;-81
2023/09/12 11:14:24;;;;;;;9.75;6.10;;;;;;;;;;5026742;28;20223;-82
2023/09/12 11:17:10;;;;;;;6.70;5.72;;;;;;;;;;5042772;28;20210;-80
2023/09/12 11:19:57;;;;;;;6.60;5.88;;;;;;;;;;5039909;28;20213;-77
2023/09/12 11:22:27;;;;;;;6.35;5.85;;;;;;;;;;5035083;28;20207;-84
2023/09/12 11:24:58;;;;;;;9.18;6.10;;;;;;;;;;5030644;28;20226;-85
2023/09/12 11:27:31;;;;;;;7.05;6.32;;;;;;;;;;5057723;28;20211;-78
2023/09/12 11:30:06;;;;;;;6.53;5.85;;;;;;;;;;5071888;28;20226;-82
2023/09/12 11:32:36;;;;;;;6.82;6.07;;;;;;;;;;5058377;28;20228;-79
2023/09/12 11:35:07;;;;;;;6.07;5.47;;;;;;;;;;5046279;28;20219;-79
2023/09/12 11:37:38;;;;;;;6.18;5.30;;;;;;;;;;5052516;28;20211;-77
2023/09/12 11:40:11;;;;;;;6.28;5.30;;;;;;;;;;5047602;28;20203;-76
2023/09/12 11:42:41;;;;;;;5.55;5.05;;;;;;;;;;5053535;28;20256;-77
2023/09/12 11:45:09;;;;;;;8.38;5.88;;;;;;;;;;5053624;28;20306;-81
2023/09/12 11:47:43;;;;;;;6.85;5.40;;;;;;;;;;5049405;28;20204;-80
2023/09/12 11:50:26;;;;;;;7.30;6.05;;;;;;;;;;5040418;28;20234;-76
2023/09/12 11:53:04;;;;;;;6.85;5.43;;;;;;;;;;5035540;28;20233;-76
2023/09/12 11:55:36;;;;;;;5.97;5.47;;;;;;;;;;5048544;28;20215;-75
2023/09/12 11:58:04;;;;;;;6.72;5.72;;;;;;;;;;5057937;28;20210;-82
2023/09/12 12:00:31;;;;;;;6.43;5.28;;;;;;;;;;5044980;28;20210;-78
2023/09/12 12:02:58;;;;;;;6.50;5.90;;;;;;;;;;5043770;28;20292;-77
2023/09/12 12:05:26;;;;;;;6.70;5.45;;;;;;;;;;5055117;28;20223;-81
2023/09/12 12:07:54;;;;;;;8.05;5.57;;;;;;;;;;5058033;28;20202;-77
2023/09/12 12:10:41;;;;;;;7.80;5.72;;;;;;;;;;5039560;28;20283;-75
2023/09/12 12:13:12;;;;;;;6.00;5.50;;;;;;;;;;5044008;28;20199;-80
2023/09/12 12:15:39;;;;;;;6.80;6.03;;;;;;;;;;5049633;28;20227;-79
2023/09/12 12:18:06;;;;;;;6.20;5.60;;;;;;;;;;5038107;28;20203;-80
2023/09/12 12:20:34;;;;;;;5.97;5.47;;;;;;;;;;5045993;28;20207;-81
2023/09/12 12:23:01;;;;;;;6.60;5.90;;;;;;;;;;5024043;28;20202;-82
2023/09/12 12:25:33;;;;;;;7.03;5.15;;;;;;;;;;5032590;28;20246;-80
2023/09/12 12:28:02;;;;;;;6.43;5.90;;;;;;;;;;5031305;28;20232;-80
2023/09/12 12:30:33;;;;;;;6.28;5.72;;;;;;;;;;5043525;28;20241;-82
2023/09/12 12:33:07;;;;;;;6.35;5.47;;;;;;;;;;5038069;28;20259;-81
2023/09/12 12:36:04;;;;;;;6.20;5.60;;;;;;;;;;5044517;28;20223;-81
2023/09/12 12:38:37;;;;;;;5.70;5.20;;;;;;;;;;5034096;28;20202;-79
2023/09/12 12:41:25;;;;;;;6.22;5.60;;;;;;;;;;5025991;28;20205;-83
2023/09/12 12:44:03;;;;;;;6.63;5.60;;;;;;;;;;5034998;28;20770;-80
2023/09/12 12:46:30;;;;;;;6.28;5.68;;;;;;;;;;5032460;28;20604;-83
2023/09/12 12:48:57;;;;;;;5.57;5.18;;;;;;;;;;5034946;28;20720;-82
2023/09/12 12:51:25;;;;;;;6.55;5.75;;;;;;;;;;5036681;28;20205;-79
2023/09/12 12:53:54;;;;;;;6.50;5.78;;;;;;;;;;5043762;28;20210;-84
2023/09/12 12:56:22;;;;;;;7.22;5.63;;;;;;;;;;5035181;28;20214;-80
2023/09/12 12:58:50;;;;;;;6.50;5.68;;;;;;;;;;5034418;28;20202;-81
2023/09/12 13:01:18;;;;;;;5.93;5.45;;;;;;;;;;5030896;28;20604;-80
2023/09/12 13:03:45;;;;;;;6.20;5.60;;;;;;;;;;5029552;28;20345;-82
2023/09/12 13:06:14;;;;;;;5.70;5.30;;;;;;;;;;5030133;28;20202;-82
2023/09/12 13:08:44;;;;;;;5.97;5.47;;;;;;;;;;5053200;28;20236;-82
2023/09/12 13:11:12;;;;;;;5.70;5.20;;;;;;;;;;5028691;28;20346;-81
2023/09/12 13:13:43;;;;;;;6.32;5.80;;;;;;;;;;5025114;28;20254;-81
2023/09/12 13:16:13;;;;;;;6.38;5.78;;;;;;;;;;5052888;28;20210;-80
2023/09/12 13:18:40;;;;;;;6.38;5.78;;;;;;;;;;5047594;28;20648;-80
2023/09/12 13:21:08;;;;;;;6.05;5.55;;;;;;;;;;5040152;28;20222;-80
2023/09/12 13:23:36;;;;;;;6.45;5.80;;;;;;;;;;5051346;28;20206;-82
2023/09/12 13:26:04;;;;;;;6.22;5.63;;;;;;;;;;5048252;28;20277;-79
2023/09/12 13:28:31;;;;;;;6.78;5.60;;;;;;;;;;5033075;28;20307;-79
2023/09/12 13:30:59;;;;;;;6.28;5.63;;;;;;;;;;5041490;28;20579;-81
2023/09/12 13:33:26;;;;;;;6.10;5.60;;;;;;;;;;5043650;28;20203;-81
2023/09/12 13:35:53;;;;;;;5.90;5.40;;;;;;;;;;5035042;28;20225;-79
2023/09/12 13:38:22;;;;;;;7.00;6.40;;;;;;;;;;5033869;28;20630;-81
2023/09/12 13:40:49;;;;;;;6.72;6.10;;;;;;;;;;5032430;28;20207;-78
2023/09/12 13:43:17;;;;;;;8.13;6.70;;;;;;;;;;5036159;28;20218;-80
2023/09/12 13:45:44;;;;;;;7.32;6.60;;;;;;;;;;5027328;28;20595;-80
2023/09/12 13:48:13;;;;;;;7.25;6.57;;;;;;;;;;5030255;28;20211;-80
2023/09/12 13:50:42;;;;;;;7.45;6.70;;;;;;;;;;5041823;28;20713;-80
2023/09/12 13:53:10;;;;;;;10.77;7.10;;;;;;;;;;5034099;28;20202;-81
2023/09/12 13:55:37;;;;;;;10.18;6.80;;;;;;;;;;5024636;28;20251;-79
2023/09/12 13:58:25;;;;;;;7.07;6.47;;;;;;;;;;5027486;28;20290;-83
2023/09/12 14:00:59;;;;;;;7.47;6.55;;;;;;;;;;5034064;28;20212;-82
2023/09/12 14:03:26;;;;;;;10.07;7.13;;;;;;;;;;5027633;28;20206;-81
2023/09/12 14:05:57;;;;;;;8.35;7.18;;;;;;;;;;5030874;28;20235;-82
2023/09/12 14:08:25;;;;;;;8.13;7.20;;;;;;;;;;5032476;28;20234;-79
2023/09/12 14:10:53;;;;;;;7.22;6.63;;;;;;;;;;5031978;28;20320;-81
2023/09/12 14:13:21;;;;;;;7.55;6.85;;;;;;;;;;5023910;28;20206;-79
2023/09/12 14:15:50;;;;;;;8.88;7.25;;;;;;;;;;5037932;28;20230;-80
2023/09/12 14:18:18;;;;;;;9.75;6.97;;;;;;;;;;5027327;28;20725;-80
2023/09/12 14:20:47;;;;;;;8.50;6.75;;;;;;;;;;5034329;28;20212;-77
2023/09/12 14:23:16;;;;;;;7.97;7.20;;;;;;;;;;5031299;28;20211;-81
2023/09/12 14:25:43;;;;;;;7.95;7.25;;;;;;;;;;5038205;28;20235;-84
2023/09/12 14:28:12;;;;;;;8.02;7.28;;;;;;;;;;5026905;28;20208;-79
2023/09/12 14:30:44;;;;;;;7.65;6.95;;;;;;;;;;5035166;28;20738;-82
2023/09/12 14:33:13;;;;;;;7.78;7.05;;;;;;;;;;5038275;28;20199;-80
2023/09/12 14:35:44;;;;;;;7.43;6.72;;;;;;;;;;5030262;28;20266;-79
2023/09/12 14:38:12;;;;;;;9.82;7.20;;;;;;;;;;5032987;28;20752;-82
2023/09/12 14:40:39;;;;;;;8.98;7.45;;;;;;;;;;5031710;28;20217;-82
2023/09/12 14:43:11;;;;;;;8.48;7.47;;;;;;;;;;5038094;28;20203;-81
2023/09/12 14:45:38;;;;;;;7.85;7.15;;;;;;;;;;5033029;28;20249;-79
2023/09/12 14:48:07;;;;;;;7.47;6.60;;;;;;;;;;5032929;28;20213;-81